createdAt,value
2017-08-17T00:00:25.233Z,25.4
2017-08-17T00:01:26.898Z,25.7
2017-08-17T00:02:28.565Z,25.4
2017-08-17T00:03:30.216Z,25.2
2017-08-17T00:04:31.882Z,25.0
2017-08-17T00:05:33.545Z,25.5
2017-08-17T00:06:35.205Z,25.3
2017-08-17T00:07:36.866Z,25.3
2017-08-17T00:08:38.527Z,25.0
2017-08-17T00:09:40.188Z,25.5
2017-08-17T00:10:41.850Z,25.2
2017-08-17T00:11:43.515Z,25.5
2017-08-17T00:12:45.169Z,25.1
2017-08-17T00:13:46.832Z,25.7
2017-08-17T00:14:48.492Z,25.7
2017-08-17T00:15:50.155Z,25.4
2017-08-17T00:16:51.817Z,25.7
2017-08-17T00:17:53.481Z,25.5
2017-08-17T00:18:55.152Z,25.1
2017-08-17T00:19:56.816Z,25.5
2017-08-17T00:20:58.473Z,25.4
2017-08-17T00:22:00.139Z,25.4
2017-08-17T00:23:01.804Z,25.4
2017-08-17T00:24:03.463Z,25.3
2017-08-17T00:25:05.122Z,25.1
2017-08-17T00:26:06.787Z,25.5
2017-08-17T00:27:08.442Z,25.2
2017-08-17T00:28:10.112Z,25.6
2017-08-17T00:29:11.773Z,25.2
2017-08-17T00:30:13.439Z,25.2
2017-08-17T00:31:15.106Z,25.4
2017-08-17T00:32:16.766Z,25.5
2017-08-17T00:33:18.426Z,25.5
2017-08-17T00:34:20.088Z,25.6
2017-08-17T00:35:21.755Z,25.5
2017-08-17T00:36:23.414Z,25.1
2017-08-17T00:37:25.068Z,25.5
2017-08-17T00:38:26.739Z,25.4
2017-08-17T00:39:28.398Z,25.7
2017-08-17T00:40:30.066Z,25.1
2017-08-17T00:41:31.731Z,25.7
2017-08-17T00:42:33.398Z,25.8
2017-08-17T00:43:35.060Z,25.9
2017-08-17T00:44:36.722Z,26.3
2017-08-17T00:45:38.387Z,26.4
2017-08-17T00:46:40.048Z,26.4
2017-08-17T00:47:41.712Z,26.3
2017-08-17T00:48:43.377Z,26.7
2017-08-17T00:49:45.037Z,26.9
2017-08-17T00:50:46.705Z,26.9
2017-08-17T00:51:48.366Z,26.6
2017-08-17T00:52:50.026Z,26.1
2017-08-17T00:53:51.691Z,25.9
2017-08-17T00:54:53.352Z,25.9
2017-08-17T00:55:55.010Z,25.2
2017-08-17T00:56:56.673Z,25.5
2017-08-17T00:57:58.341Z,25.7
2017-08-17T00:59:00.001Z,25.3
2017-08-17T01:00:01.660Z,25.4
2017-08-17T01:01:03.320Z,25.6
2017-08-17T01:02:04.987Z,25.5
2017-08-17T01:03:06.646Z,25.6
2017-08-17T01:04:08.301Z,25.7
2017-08-17T01:05:09.968Z,26.0
2017-08-17T01:06:11.635Z,26.1
2017-08-17T01:07:13.299Z,26.4
2017-08-17T01:08:14.975Z,26.7
2017-08-17T01:09:16.641Z,27.6
2017-08-17T01:10:18.303Z,28.0
2017-08-17T01:11:19.963Z,27.8
2017-08-17T01:12:21.633Z,27.6
2017-08-17T01:13:23.291Z,28.6
2017-08-17T01:14:24.956Z,28.2
2017-08-17T01:15:26.620Z,28.2
2017-08-17T01:16:28.284Z,28.7
2017-08-17T01:17:29.951Z,29.2
2017-08-17T01:18:31.610Z,29.2
2017-08-17T01:19:33.268Z,29.9
2017-08-17T01:20:34.937Z,29.9
2017-08-17T01:21:36.597Z,30.3
2017-08-17T01:22:38.267Z,29.9
2017-08-17T01:23:39.966Z,29.3
2017-08-17T01:24:41.624Z,28.5
2017-08-17T01:25:43.285Z,28.4
2017-08-17T01:26:44.939Z,27.9
2017-08-17T01:27:46.610Z,27.6
2017-08-17T01:28:48.271Z,26.9
2017-08-17T01:29:49.926Z,26.9
2017-08-17T01:30:51.585Z,26.8
2017-08-17T01:31:53.249Z,26.1
2017-08-17T01:32:54.911Z,25.6
2017-08-17T01:33:56.575Z,25.5
2017-08-17T01:34:58.232Z,25.7
2017-08-17T01:35:59.899Z,26.0
2017-08-17T01:37:01.565Z,26.1
2017-08-17T01:38:03.228Z,26.6
2017-08-17T01:39:04.885Z,27.0
2017-08-17T01:40:06.558Z,26.9
2017-08-17T01:41:08.228Z,28.2
2017-08-17T01:42:09.890Z,28.2
2017-08-17T01:43:11.565Z,28.2
2017-08-17T01:44:13.225Z,28.6
2017-08-17T01:45:14.902Z,29.3
2017-08-17T01:46:16.561Z,29.9
2017-08-17T01:47:18.216Z,30.7
2017-08-17T01:48:19.882Z,30.6
2017-08-17T01:49:21.543Z,30.9
2017-08-17T01:50:23.201Z,30.6
2017-08-17T01:51:24.861Z,30.9
2017-08-17T01:52:26.529Z,31.3
2017-08-17T01:53:28.198Z,31.8
2017-08-17T01:54:29.871Z,32.2
2017-08-17T01:55:31.530Z,31.9
2017-08-17T01:56:33.194Z,31.4
2017-08-17T01:57:34.869Z,30.5
2017-08-17T01:58:36.526Z,29.4
2017-08-17T01:59:38.195Z,28.1
2017-08-17T02:00:39.850Z,28.7
2017-08-17T02:01:41.511Z,28.0
2017-08-17T02:02:43.169Z,28.5
2017-08-17T02:03:44.832Z,28.8
2017-08-17T02:04:46.493Z,29.3
2017-08-17T02:05:48.153Z,29.2
2017-08-17T02:06:49.812Z,29.2
2017-08-17T02:07:51.473Z,31.8
2017-08-17T02:08:53.131Z,32.4
2017-08-17T02:09:54.790Z,32.2
2017-08-17T02:10:56.454Z,31.8
2017-08-17T02:11:58.119Z,31.2
2017-08-17T02:12:59.783Z,31.4
2017-08-17T02:14:01.440Z,32.5
2017-08-17T02:15:03.094Z,33.8
2017-08-17T02:16:04.775Z,34.9
2017-08-17T02:17:06.440Z,34.6
2017-08-17T02:18:08.108Z,34.4
2017-08-17T02:19:09.775Z,33.6
2017-08-17T02:20:11.487Z,33.4
2017-08-17T02:21:13.150Z,35.2
2017-08-17T02:22:14.811Z,35.9
2017-08-17T02:23:16.472Z,35.6
2017-08-17T02:24:18.141Z,35.9
2017-08-17T02:25:19.824Z,35.5
2017-08-17T02:26:21.484Z,35.5
2017-08-17T02:27:23.223Z,35.4
2017-08-17T02:28:24.888Z,34.9
2017-08-17T02:29:26.547Z,35.3
2017-08-17T02:30:28.200Z,36.6
2017-08-17T02:31:29.867Z,36.8
2017-08-17T02:32:31.537Z,36.9
2017-08-17T02:33:33.203Z,36.2
2017-08-17T02:34:34.866Z,36.3
2017-08-17T02:35:36.521Z,36.4
2017-08-17T02:36:38.206Z,35.8
2017-08-17T02:37:39.872Z,35.5
2017-08-17T02:38:41.561Z,35.9
2017-08-17T02:39:43.222Z,36.4
2017-08-17T02:40:44.885Z,35.9
2017-08-17T02:41:46.547Z,36.2
2017-08-17T02:42:48.210Z,37.1
2017-08-17T02:43:49.879Z,37.1
2017-08-17T02:44:51.544Z,38.0
2017-08-17T02:45:53.200Z,37.3
2017-08-17T02:46:54.869Z,36.8
2017-08-17T02:47:56.519Z,36.1
2017-08-17T02:48:58.180Z,35.5
2017-08-17T02:49:59.844Z,35.8
2017-08-17T02:51:01.516Z,36.4
2017-08-17T02:52:03.174Z,36.5
2017-08-17T02:53:04.838Z,35.9
2017-08-17T02:54:06.487Z,35.6
2017-08-17T02:55:08.149Z,36.4
2017-08-17T02:56:09.816Z,36.0
2017-08-17T02:57:11.468Z,36.3
2017-08-17T02:58:13.129Z,37.0
2017-08-17T02:59:14.789Z,37.4
2017-08-17T03:00:16.451Z,36.8
2017-08-17T03:01:18.122Z,37.3
2017-08-17T03:02:19.781Z,37.9
2017-08-17T03:03:21.452Z,38.5
2017-08-17T03:04:23.120Z,38.7
2017-08-17T03:05:24.781Z,38.1
2017-08-17T03:06:26.441Z,38.0
2017-08-17T03:07:28.099Z,37.8
2017-08-17T03:08:29.757Z,37.8
2017-08-17T03:09:31.419Z,38.2
2017-08-17T03:10:33.083Z,38.0
2017-08-17T03:11:34.759Z,38.0
2017-08-17T03:12:36.413Z,37.7
2017-08-17T03:13:38.073Z,38.0
2017-08-17T03:14:39.733Z,38.4
2017-08-17T03:15:41.392Z,38.3
2017-08-17T03:16:43.052Z,38.4
2017-08-17T03:17:44.716Z,38.9
2017-08-17T03:18:46.373Z,38.5
2017-08-17T03:19:48.028Z,38.1
2017-08-17T03:20:49.685Z,38.5
2017-08-17T03:21:51.341Z,38.8
2017-08-17T03:22:52.997Z,38.4
2017-08-17T03:23:54.662Z,38.8
2017-08-17T03:24:56.326Z,38.8
2017-08-17T03:25:57.996Z,39.1
2017-08-17T03:26:59.651Z,39.4
2017-08-17T03:28:01.310Z,38.9
2017-08-17T03:29:02.970Z,39.3
2017-08-17T03:30:04.637Z,39.2
2017-08-17T03:31:06.305Z,38.8
2017-08-17T03:32:07.967Z,38.8
2017-08-17T03:33:09.641Z,39.0
2017-08-17T03:34:11.298Z,39.1
2017-08-17T03:35:12.963Z,38.8
2017-08-17T03:36:14.626Z,38.9
2017-08-17T03:37:16.364Z,38.9
2017-08-17T03:38:18.008Z,38.8
2017-08-17T03:39:19.664Z,38.8
2017-08-17T03:40:21.331Z,38.9
2017-08-17T03:41:22.990Z,38.4
2017-08-17T03:42:24.661Z,38.0
2017-08-17T03:43:26.320Z,38.2
2017-08-17T03:44:27.980Z,38.1
2017-08-17T03:45:29.646Z,38.2
2017-08-17T03:46:31.314Z,37.9
2017-08-17T03:47:32.978Z,38.0
2017-08-17T03:48:34.626Z,37.9
2017-08-17T03:49:36.292Z,38.0
2017-08-17T03:50:37.951Z,37.4
2017-08-17T03:51:39.612Z,36.9
2017-08-17T03:52:41.286Z,37.1
2017-08-17T03:53:42.933Z,37.0
2017-08-17T03:54:44.600Z,37.0
2017-08-17T03:55:46.261Z,36.9
2017-08-17T03:56:47.922Z,36.8
2017-08-17T03:57:49.583Z,36.7
2017-08-17T03:58:51.259Z,36.5
2017-08-17T03:59:52.919Z,36.4
2017-08-17T04:00:54.583Z,35.8
2017-08-17T04:01:56.250Z,35.6
2017-08-17T04:02:57.909Z,35.0
2017-08-17T04:03:59.573Z,34.3
2017-08-17T04:05:01.235Z,33.7
2017-08-17T04:06:02.926Z,33.0
2017-08-17T04:07:04.589Z,32.9
2017-08-17T04:08:06.253Z,32.8
2017-08-17T04:09:07.913Z,34.3
2017-08-17T04:10:09.575Z,34.7
2017-08-17T04:11:11.233Z,34.4
2017-08-17T04:12:12.895Z,34.6
2017-08-17T04:13:14.557Z,34.6
2017-08-17T04:14:16.221Z,34.5
2017-08-17T04:15:17.884Z,34.7
2017-08-17T04:16:19.547Z,35.4
2017-08-17T04:17:21.214Z,35.6
2017-08-17T04:18:22.875Z,36.0
2017-08-17T04:19:24.539Z,35.9
2017-08-17T04:20:26.208Z,35.9
2017-08-17T04:21:27.872Z,36.2
2017-08-17T04:22:29.541Z,36.7
2017-08-17T04:23:31.200Z,36.1
2017-08-17T04:24:32.861Z,36.5
2017-08-17T04:25:34.519Z,35.6
2017-08-17T04:26:36.189Z,36.2
2017-08-17T04:27:37.856Z,36.4
2017-08-17T04:28:39.528Z,36.5
2017-08-17T04:29:41.194Z,36.4
2017-08-17T04:30:42.875Z,36.3
2017-08-17T04:31:44.522Z,36.0
2017-08-17T04:32:46.176Z,36.7
2017-08-17T04:33:47.847Z,36.8
2017-08-17T04:34:49.508Z,37.0
2017-08-17T04:35:51.170Z,37.3
2017-08-17T04:36:52.839Z,38.0
2017-08-17T04:37:54.504Z,38.0
2017-08-17T04:38:56.169Z,38.0
2017-08-17T04:39:57.828Z,38.0
2017-08-17T04:40:59.485Z,38.1
2017-08-17T04:42:01.148Z,38.2
2017-08-17T04:43:02.810Z,38.0
2017-08-17T04:44:04.477Z,38.3
2017-08-17T04:45:06.203Z,38.4
2017-08-17T04:46:07.865Z,38.1
2017-08-17T04:47:09.534Z,38.1
2017-08-17T04:48:11.199Z,38.1
2017-08-17T04:49:12.866Z,38.0
2017-08-17T04:50:14.532Z,38.0
2017-08-17T04:51:16.194Z,38.0
2017-08-17T04:52:17.866Z,37.9
2017-08-17T04:53:19.529Z,37.7
2017-08-17T04:54:21.186Z,38.0
2017-08-17T04:55:22.877Z,37.9
2017-08-17T04:56:24.550Z,37.8
2017-08-17T04:57:26.231Z,38.2
2017-08-17T04:58:27.893Z,38.4
2017-08-17T04:59:29.563Z,38.3
2017-08-17T05:00:31.715Z,38.6
2017-08-17T05:01:37.281Z,39.0
2017-08-17T05:02:38.910Z,39.4
2017-08-17T05:03:40.573Z,38.9
2017-08-17T05:04:42.233Z,38.9
2017-08-17T05:05:43.899Z,38.8
2017-08-17T05:06:45.567Z,38.8
2017-08-17T05:07:47.233Z,38.5
2017-08-17T05:08:48.899Z,38.4
2017-08-17T05:09:50.567Z,38.4
2017-08-17T05:10:52.243Z,38.3
2017-08-17T05:11:53.894Z,38.3
2017-08-17T05:12:55.565Z,38.3
2017-08-17T05:13:57.223Z,38.3
2017-08-17T05:14:58.891Z,38.2
2017-08-17T05:16:00.560Z,38.1
2017-08-17T05:17:02.228Z,38.0
2017-08-17T05:18:03.980Z,37.9
2017-08-17T05:19:05.658Z,37.4
2017-08-17T05:20:07.329Z,36.8
2017-08-17T05:21:08.992Z,35.9
2017-08-17T05:22:10.658Z,35.7
2017-08-17T05:23:12.324Z,35.2
2017-08-17T05:24:13.987Z,34.8
2017-08-17T05:25:15.661Z,34.8
2017-08-17T05:26:17.328Z,34.8
2017-08-17T05:27:19.075Z,34.6
2017-08-17T05:28:20.745Z,34.7
2017-08-17T05:29:22.408Z,34.7
2017-08-17T05:30:24.090Z,33.4
2017-08-17T05:31:25.750Z,32.6
2017-08-17T05:32:27.416Z,31.8
2017-08-17T05:33:29.089Z,30.0
2017-08-17T05:34:30.766Z,28.7
2017-08-17T05:35:32.446Z,29.2
2017-08-17T05:36:34.107Z,28.4
2017-08-17T05:37:35.770Z,29.1
2017-08-17T05:38:37.439Z,29.3
2017-08-17T05:39:39.107Z,28.9
2017-08-17T05:40:40.774Z,28.6
2017-08-17T05:41:42.445Z,27.9
2017-08-17T05:42:44.111Z,27.1
2017-08-17T05:43:45.803Z,24.3
2017-08-17T05:44:47.469Z,24.5
2017-08-17T05:45:49.134Z,24.5
2017-08-17T05:46:50.807Z,23.8
2017-08-17T05:47:52.466Z,23.1
2017-08-17T05:48:54.151Z,22.8
2017-08-17T05:49:55.796Z,22.5
2017-08-17T05:50:57.467Z,21.3
2017-08-17T05:51:59.142Z,21.7
2017-08-17T05:53:00.808Z,21.1
2017-08-17T05:54:02.481Z,22.6
2017-08-17T05:55:04.146Z,21.6
2017-08-17T05:56:05.823Z,21.3
2017-08-17T05:57:07.489Z,21.2
2017-08-17T05:58:09.157Z,21.1
2017-08-17T05:59:10.821Z,21.0
2017-08-17T06:00:12.491Z,21.6
2017-08-17T06:01:14.167Z,22.6
2017-08-17T06:02:15.841Z,21.2
2017-08-17T06:03:17.507Z,22.3
2017-08-17T06:04:19.188Z,27.1
2017-08-17T06:05:20.847Z,24.7
2017-08-17T06:06:22.515Z,23.7
2017-08-17T06:07:24.190Z,22.1
2017-08-17T06:08:25.858Z,23.0
2017-08-17T06:09:27.522Z,23.3
2017-08-17T06:10:29.195Z,22.9
2017-08-17T06:11:30.870Z,22.5
2017-08-17T06:12:32.543Z,25.7
2017-08-17T06:13:34.208Z,27.0
2017-08-17T06:14:35.875Z,26.9
2017-08-17T06:15:37.551Z,32.8
2017-08-17T06:16:39.226Z,32.3
2017-08-17T06:17:40.895Z,25.4
2017-08-17T06:18:42.570Z,23.4
2017-08-17T06:19:44.238Z,26.5
2017-08-17T06:20:45.912Z,26.4
2017-08-17T06:21:47.584Z,31.3
2017-08-17T06:22:49.268Z,36.4
2017-08-17T06:23:50.954Z,29.4
2017-08-17T06:24:52.620Z,37.9
2017-08-17T06:25:54.294Z,38.6
2017-08-17T06:26:55.960Z,42.4
2017-08-17T06:27:57.634Z,46.9
2017-08-17T06:28:59.366Z,37.9
2017-08-17T06:30:01.039Z,36.4
2017-08-17T06:31:02.766Z,48.5
2017-08-17T06:32:04.406Z,61.7
2017-08-17T06:33:06.079Z,43.8
2017-08-17T06:34:07.753Z,58.8
2017-08-17T06:35:09.431Z,49.1
2017-08-17T06:36:11.100Z,53.0
2017-08-17T06:37:12.769Z,46.4
2017-08-17T06:38:14.444Z,56.5
2017-08-17T06:39:16.114Z,54.0
2017-08-17T06:40:17.789Z,56.5
2017-08-17T06:41:19.464Z,64.0
2017-08-17T06:42:21.136Z,62.2
2017-08-17T06:43:22.812Z,74.4
2017-08-17T06:44:24.486Z,69.8
2017-08-17T06:45:26.156Z,76.0
2017-08-17T06:46:27.823Z,75.6
2017-08-17T06:47:29.499Z,77.7
2017-08-17T06:48:31.172Z,77.1
2017-08-17T06:49:32.841Z,77.5
2017-08-17T06:50:34.513Z,77.7
2017-08-17T06:51:36.191Z,81.1
2017-08-17T06:52:37.863Z,79.4
2017-08-17T06:53:39.541Z,81.3
2017-08-17T06:54:41.217Z,79.5
2017-08-17T06:55:42.890Z,79.7
2017-08-17T06:56:44.567Z,79.3
2017-08-17T06:57:46.244Z,79.9
2017-08-17T06:58:47.913Z,78.7
2017-08-17T06:59:49.590Z,78.2
2017-08-17T07:00:51.262Z,79.7
2017-08-17T07:01:52.937Z,79.2
2017-08-17T07:02:54.606Z,80.4
2017-08-17T07:03:56.285Z,80.4
2017-08-17T07:04:57.958Z,79.9
2017-08-17T07:05:59.629Z,78.1
2017-08-17T07:07:01.301Z,77.9
2017-08-17T07:08:02.972Z,78.5
2017-08-17T07:09:04.641Z,80.1
2017-08-17T07:10:06.318Z,82.1
2017-08-17T07:11:07.987Z,81.2
2017-08-17T07:12:09.665Z,82.1
2017-08-17T07:13:11.336Z,82.0
2017-08-17T07:14:13.015Z,81.4
2017-08-17T07:15:14.691Z,81.8
2017-08-17T07:16:16.364Z,82.9
2017-08-17T07:17:18.033Z,81.6
2017-08-17T07:18:19.704Z,81.0
2017-08-17T07:19:21.380Z,82.3
2017-08-17T07:20:23.058Z,81.8
2017-08-17T07:21:24.737Z,81.5
2017-08-17T07:22:26.412Z,80.5
2017-08-17T07:23:28.082Z,79.7
2017-08-17T07:24:29.761Z,79.5
2017-08-17T07:25:31.433Z,77.9
2017-08-17T07:26:33.106Z,78.8
2017-08-17T07:27:34.786Z,79.2
2017-08-17T07:28:36.459Z,77.6
2017-08-17T07:29:38.160Z,77.6
2017-08-17T07:30:39.851Z,73.2
2017-08-17T07:31:41.525Z,74.2
2017-08-17T07:32:43.206Z,69.8
2017-08-17T07:33:44.871Z,71.2
2017-08-17T07:34:46.546Z,70.3
2017-08-17T07:35:48.259Z,68.5
2017-08-17T07:36:49.950Z,68.0
2017-08-17T07:37:51.629Z,64.1
2017-08-17T07:38:53.308Z,64.3
2017-08-17T07:39:54.974Z,62.8
2017-08-17T07:40:56.642Z,61.4
2017-08-17T07:41:58.314Z,58.3
2017-08-17T07:43:00.001Z,53.3
2017-08-17T07:44:01.757Z,51.0
2017-08-17T07:45:03.437Z,53.1
2017-08-17T07:46:05.110Z,57.1
2017-08-17T07:47:06.852Z,58.6
2017-08-17T07:48:08.539Z,59.6
2017-08-17T07:49:10.223Z,67.5
2017-08-17T07:50:11.911Z,67.9
2017-08-17T07:51:13.591Z,66.0
2017-08-17T07:52:15.285Z,67.4
2017-08-17T07:53:16.964Z,72.1
2017-08-17T07:54:18.640Z,78.3
2017-08-17T07:55:20.314Z,80.2
2017-08-17T07:56:21.998Z,80.5
2017-08-17T07:57:23.675Z,79.1
2017-08-17T07:58:25.352Z,79.3
2017-08-17T07:59:27.077Z,80.1
2017-08-17T08:00:28.762Z,79.4
2017-08-17T08:01:30.443Z,78.8
2017-08-17T08:02:32.117Z,79.0
2017-08-17T08:03:33.793Z,77.8
2017-08-17T08:04:35.472Z,78.7
2017-08-17T08:05:37.152Z,76.2
2017-08-17T08:06:38.828Z,74.2
2017-08-17T08:07:40.506Z,70.2
2017-08-17T08:08:42.180Z,66.3
2017-08-17T08:09:43.866Z,62.3
2017-08-17T08:10:45.567Z,61.3
2017-08-17T08:11:47.251Z,63.8
2017-08-17T08:12:48.936Z,66.1
2017-08-17T08:13:50.611Z,67.2
2017-08-17T08:14:52.286Z,63.6
2017-08-17T08:15:53.955Z,63.4
2017-08-17T08:16:55.629Z,61.7
2017-08-17T08:17:57.307Z,60.7
2017-08-17T08:18:58.999Z,58.1
2017-08-17T08:20:00.668Z,55.6
2017-08-17T08:21:02.348Z,53.4
2017-08-17T08:22:04.023Z,50.4
2017-08-17T08:23:05.699Z,48.6
2017-08-17T08:24:07.412Z,48.1
2017-08-17T08:25:09.095Z,47.3
2017-08-17T08:26:10.771Z,48.1
2017-08-17T08:27:12.456Z,46.1
2017-08-17T08:28:14.136Z,46.7
2017-08-17T08:29:15.815Z,47.6
2017-08-17T08:30:17.494Z,48.8
2017-08-17T08:31:19.173Z,47.9
2017-08-17T08:32:20.849Z,48.8
2017-08-17T08:33:22.554Z,49.7
2017-08-17T08:34:24.237Z,49.7
2017-08-17T08:35:25.915Z,50.0
2017-08-17T08:36:27.595Z,53.3
2017-08-17T08:37:29.284Z,51.5
2017-08-17T08:38:30.965Z,53.2
2017-08-17T08:39:32.660Z,53.0
2017-08-17T08:40:34.340Z,52.8
2017-08-17T08:41:36.024Z,53.7
2017-08-17T08:42:37.701Z,52.7
2017-08-17T08:43:39.384Z,52.8
2017-08-17T08:44:41.064Z,51.1
2017-08-17T08:45:42.741Z,52.7
2017-08-17T08:46:44.425Z,57.8
2017-08-17T08:47:46.106Z,55.1
2017-08-17T08:48:47.790Z,53.0
2017-08-17T08:49:49.477Z,54.3
2017-08-17T08:50:51.155Z,55.1
2017-08-17T08:51:52.834Z,54.8
2017-08-17T08:52:54.512Z,54.7
2017-08-17T08:53:56.192Z,54.7
2017-08-17T08:54:57.876Z,56.8
2017-08-17T08:55:59.553Z,56.4
2017-08-17T08:57:01.230Z,54.0
2017-08-17T08:58:02.925Z,54.6
2017-08-17T08:59:04.592Z,57.3
2017-08-17T09:00:06.265Z,57.2
2017-08-17T09:01:07.941Z,56.8
2017-08-17T09:02:09.618Z,56.4
2017-08-17T09:03:11.291Z,59.4
2017-08-17T09:04:12.972Z,57.5
2017-08-17T09:05:14.647Z,56.9
2017-08-17T09:06:16.315Z,58.3
2017-08-17T09:07:18.009Z,59.1
2017-08-17T09:08:19.681Z,60.3
2017-08-17T09:09:21.361Z,60.3
2017-08-17T09:10:23.041Z,61.2
2017-08-17T09:11:24.718Z,61.3
2017-08-17T09:12:26.389Z,59.8
2017-08-17T09:13:28.119Z,59.3
2017-08-17T09:14:29.797Z,58.1
2017-08-17T09:15:31.476Z,57.5
2017-08-17T09:16:33.158Z,56.4
2017-08-17T09:17:34.838Z,56.9
2017-08-17T09:18:36.562Z,55.1
2017-08-17T09:19:38.239Z,55.1
2017-08-17T09:20:39.918Z,55.9
2017-08-17T09:21:41.587Z,56.1
2017-08-17T09:22:43.275Z,56.3
2017-08-17T09:23:44.980Z,58.9
2017-08-17T09:24:46.655Z,60.7
2017-08-17T09:25:48.342Z,59.2
2017-08-17T09:26:50.016Z,59.4
2017-08-17T09:27:51.694Z,58.9
2017-08-17T09:28:53.370Z,58.4
2017-08-17T09:29:55.048Z,58.3
2017-08-17T09:30:56.723Z,58.1
2017-08-17T09:31:58.405Z,59.2
2017-08-17T09:33:00.088Z,58.1
2017-08-17T09:34:01.760Z,59.1
2017-08-17T09:35:03.440Z,61.0
2017-08-17T09:36:05.118Z,60.8
2017-08-17T09:37:06.793Z,58.3
2017-08-17T09:38:08.472Z,58.2
2017-08-17T09:39:10.151Z,59.7
2017-08-17T09:40:11.845Z,58.3
2017-08-17T09:41:13.524Z,59.4
2017-08-17T09:42:15.220Z,60.4
2017-08-17T09:43:16.899Z,61.2
2017-08-17T09:44:18.572Z,60.7
2017-08-17T09:45:20.249Z,61.0
2017-08-17T09:46:21.928Z,60.3
2017-08-17T09:47:23.607Z,62.6
2017-08-17T09:48:25.278Z,62.3
2017-08-17T09:49:26.963Z,60.9
2017-08-17T09:50:28.634Z,61.6
2017-08-17T09:51:30.318Z,61.7
2017-08-17T09:52:32.002Z,61.2
2017-08-17T09:53:33.677Z,61.4
2017-08-17T09:54:35.360Z,59.3
2017-08-17T09:55:37.049Z,60.4
2017-08-17T09:56:38.731Z,61.9
2017-08-17T09:57:40.403Z,62.3
2017-08-17T09:58:42.100Z,62.5
2017-08-17T09:59:43.786Z,64.0
2017-08-17T10:00:45.462Z,64.6
2017-08-17T10:01:47.154Z,61.9
2017-08-17T10:02:48.831Z,62.1
2017-08-17T10:03:50.514Z,61.3
2017-08-17T10:04:52.191Z,60.5
2017-08-17T10:05:53.882Z,62.2
2017-08-17T10:06:55.559Z,62.0
2017-08-17T10:07:57.240Z,59.1
2017-08-17T10:08:58.921Z,58.8
2017-08-17T10:10:00.592Z,59.5
2017-08-17T10:11:02.267Z,57.8
2017-08-17T10:12:03.942Z,58.6
2017-08-17T10:13:05.626Z,59.3
2017-08-17T10:14:07.305Z,60.0
2017-08-17T10:15:08.986Z,60.7
2017-08-17T10:16:10.667Z,60.7
2017-08-17T10:17:12.336Z,60.7
2017-08-17T10:18:14.025Z,60.5
2017-08-17T10:19:15.701Z,60.6
2017-08-17T10:20:17.454Z,59.6
2017-08-17T10:21:19.230Z,59.6
2017-08-17T10:22:20.825Z,59.2
2017-08-17T10:23:22.511Z,59.3
2017-08-17T10:24:24.190Z,57.6
2017-08-17T10:25:25.871Z,57.8
2017-08-17T10:26:27.549Z,58.1
2017-08-17T10:27:29.227Z,60.3
2017-08-17T10:28:30.908Z,62.0
2017-08-17T10:29:32.605Z,64.3
2017-08-17T10:30:34.272Z,64.1
2017-08-17T10:31:35.947Z,67.4
2017-08-17T10:32:37.627Z,70.5
2017-08-17T10:33:39.299Z,71.9
2017-08-17T10:34:40.974Z,74.7
2017-08-17T10:35:42.656Z,75.9
2017-08-17T10:36:44.341Z,77.6
2017-08-17T10:37:46.059Z,78.7
2017-08-17T10:38:47.732Z,79.2
2017-08-17T10:39:49.414Z,78.9
2017-08-17T10:40:51.082Z,79.0
2017-08-17T10:41:52.754Z,78.7
2017-08-17T10:42:54.439Z,77.5
2017-08-17T10:43:56.116Z,77.4
2017-08-17T10:44:57.794Z,79.3
2017-08-17T10:45:59.465Z,78.7
2017-08-17T10:47:01.138Z,78.7
2017-08-17T10:48:02.806Z,78.8
2017-08-17T10:49:04.485Z,78.9
2017-08-17T10:50:06.173Z,79.9
2017-08-17T10:51:07.831Z,80.3
2017-08-17T10:52:09.517Z,79.8
2017-08-17T10:53:11.187Z,79.6
2017-08-17T10:54:12.863Z,78.9
2017-08-17T10:55:14.559Z,78.8
2017-08-17T10:56:16.234Z,78.7
2017-08-17T10:57:17.907Z,78.0
2017-08-17T10:58:19.579Z,77.4
2017-08-17T10:59:21.249Z,78.2
2017-08-17T11:00:22.924Z,76.8
2017-08-17T11:01:24.591Z,77.0
2017-08-17T11:02:26.265Z,75.6
2017-08-17T11:03:27.939Z,77.0
2017-08-17T11:04:29.623Z,75.9
2017-08-17T11:05:31.296Z,75.9
2017-08-17T11:06:32.980Z,76.1
2017-08-17T11:07:34.655Z,75.3
2017-08-17T11:08:36.325Z,76.1
2017-08-17T11:09:37.997Z,76.7
2017-08-17T11:10:39.672Z,76.5
2017-08-17T11:11:41.349Z,77.5
2017-08-17T11:12:43.036Z,78.1
2017-08-17T11:13:44.718Z,77.4
2017-08-17T11:14:46.392Z,79.0
2017-08-17T11:15:48.095Z,79.0
2017-08-17T11:16:49.766Z,78.7
2017-08-17T11:17:51.449Z,79.8
2017-08-17T11:18:53.129Z,80.4
2017-08-17T11:19:54.865Z,81.1
2017-08-17T11:20:56.544Z,81.7
2017-08-17T11:21:58.213Z,81.8
2017-08-17T11:22:59.886Z,81.4
2017-08-17T11:24:01.566Z,80.0
2017-08-17T11:25:03.240Z,80.3
2017-08-17T11:26:04.915Z,79.7
2017-08-17T11:27:06.631Z,80.9
2017-08-17T11:28:08.319Z,80.5
2017-08-17T11:29:09.997Z,80.1
2017-08-17T11:30:11.669Z,81.0
2017-08-17T11:31:13.333Z,80.5
2017-08-17T11:32:15.008Z,80.4
2017-08-17T11:33:16.681Z,80.6
2017-08-17T11:34:18.361Z,81.1
2017-08-17T11:35:20.052Z,81.0
2017-08-17T11:36:21.714Z,81.2
2017-08-17T11:37:23.387Z,81.0
2017-08-17T11:38:25.069Z,81.1
2017-08-17T11:39:26.751Z,81.1
2017-08-17T11:40:28.428Z,81.1
2017-08-17T11:41:30.099Z,81.3
2017-08-17T11:42:31.775Z,81.3
2017-08-17T11:43:33.458Z,81.8
2017-08-17T11:44:35.133Z,81.8
2017-08-17T11:45:36.807Z,80.6
2017-08-17T11:46:38.481Z,79.8
2017-08-17T11:47:40.156Z,78.0
2017-08-17T11:48:41.831Z,76.8
2017-08-17T11:49:43.521Z,75.6
2017-08-17T11:50:45.190Z,75.5
2017-08-17T11:51:46.869Z,73.8
2017-08-17T11:52:48.555Z,75.4
2017-08-17T11:53:50.224Z,76.8
2017-08-17T11:54:51.907Z,76.9
2017-08-17T11:55:53.580Z,77.5
2017-08-17T11:56:55.258Z,78.6
2017-08-17T11:57:56.925Z,79.0
2017-08-17T11:58:58.635Z,77.3
2017-08-17T12:00:00.308Z,78.5
2017-08-17T12:01:01.979Z,78.8
2017-08-17T12:02:03.653Z,78.4
2017-08-17T12:03:05.346Z,76.3
2017-08-17T12:04:07.009Z,76.6
2017-08-17T12:05:08.682Z,77.3
2017-08-17T12:06:10.360Z,77.6
2017-08-17T12:07:12.036Z,76.2
2017-08-17T12:08:13.708Z,74.0
2017-08-17T12:09:15.379Z,73.4
2017-08-17T12:10:17.060Z,71.9
2017-08-17T12:11:18.750Z,71.1
2017-08-17T12:12:20.413Z,69.0
2017-08-17T12:13:22.089Z,70.0
2017-08-17T12:14:23.765Z,69.0
2017-08-17T12:15:25.456Z,66.9
2017-08-17T12:16:27.142Z,67.0
2017-08-17T12:17:28.807Z,66.5
2017-08-17T12:18:30.487Z,63.0
2017-08-17T12:19:32.166Z,63.8
2017-08-17T12:20:33.826Z,63.8
2017-08-17T12:21:35.511Z,62.9
2017-08-17T12:22:37.183Z,64.3
2017-08-17T12:23:38.862Z,62.7
2017-08-17T12:24:40.533Z,63.3
2017-08-17T12:25:42.215Z,63.5
2017-08-17T12:26:43.889Z,62.5
2017-08-17T12:27:45.566Z,63.2
2017-08-17T12:28:47.234Z,63.6
2017-08-17T12:29:48.949Z,63.5
2017-08-17T12:30:50.632Z,63.8
2017-08-17T12:31:52.309Z,64.8
2017-08-17T12:32:53.997Z,63.3
2017-08-17T12:33:55.666Z,62.5
2017-08-17T12:34:57.343Z,62.1
2017-08-17T12:35:59.013Z,61.4
2017-08-17T12:37:00.721Z,61.8
2017-08-17T12:38:02.407Z,61.2
2017-08-17T12:39:04.081Z,61.2
2017-08-17T12:40:05.756Z,60.4
2017-08-17T12:41:07.428Z,58.3
2017-08-17T12:42:09.123Z,57.2
2017-08-17T12:43:10.794Z,56.5
2017-08-17T12:44:12.490Z,56.0
2017-08-17T12:45:14.170Z,56.4
2017-08-17T12:46:15.849Z,57.4
2017-08-17T12:47:17.550Z,58.5
2017-08-17T12:48:19.227Z,59.1
2017-08-17T12:49:20.901Z,60.7
2017-08-17T12:50:22.592Z,61.5
2017-08-17T12:51:24.267Z,64.0
2017-08-17T12:52:25.947Z,66.4
2017-08-17T12:53:27.628Z,66.8
2017-08-17T12:54:29.306Z,67.7
2017-08-17T12:55:31.002Z,68.6
2017-08-17T12:56:32.693Z,69.3
2017-08-17T12:57:34.373Z,71.0
2017-08-17T12:58:36.049Z,71.5
2017-08-17T12:59:37.727Z,73.4
2017-08-17T13:00:39.396Z,71.9
2017-08-17T13:01:41.089Z,71.1
2017-08-17T13:02:42.758Z,69.7
2017-08-17T13:03:44.436Z,69.2
2017-08-17T13:04:46.106Z,70.1
2017-08-17T13:05:47.802Z,68.5
2017-08-17T13:06:49.481Z,68.6
2017-08-17T13:07:51.205Z,69.4
2017-08-17T13:08:52.902Z,71.9
2017-08-17T13:09:54.576Z,72.0
2017-08-17T13:10:56.259Z,72.1
2017-08-17T13:11:57.928Z,72.1
2017-08-17T13:12:59.608Z,71.7
2017-08-17T13:14:01.283Z,73.0
2017-08-17T13:15:02.959Z,73.7
2017-08-17T13:16:04.635Z,74.5
2017-08-17T13:17:06.313Z,74.7
2017-08-17T13:18:07.999Z,74.3
2017-08-17T13:19:09.670Z,74.0
2017-08-17T13:20:11.334Z,71.8
2017-08-17T13:21:13.016Z,70.5
2017-08-17T13:22:14.706Z,72.7
2017-08-17T13:23:16.382Z,73.2
2017-08-17T13:24:18.063Z,72.3
2017-08-17T13:25:19.728Z,73.6
2017-08-17T13:26:21.408Z,75.2
2017-08-17T13:27:23.080Z,75.8
2017-08-17T13:28:24.748Z,76.7
2017-08-17T13:29:26.421Z,75.9
2017-08-17T13:30:28.115Z,76.5
2017-08-17T13:31:29.788Z,75.5
2017-08-17T13:32:31.462Z,77.0
2017-08-17T13:33:33.134Z,75.8
2017-08-17T13:34:34.812Z,77.0
2017-08-17T13:35:36.489Z,76.1
2017-08-17T13:36:38.240Z,75.0
2017-08-17T13:37:39.923Z,73.4
2017-08-17T13:38:41.679Z,73.5
2017-08-17T13:39:43.352Z,73.2
2017-08-17T13:40:45.050Z,72.8